EZY41HL EGGD-LEMD
Flight info
| Callsign | EZY41HL |
|---|---|
| Flight time | N/A |
| Altitude | 32000 |
| Route | EXMOR N92 DAWLY DCT BHD DCT SALCO DCT GOPIN DCT DELOG DCT VADOX DCT SNR DCT TITAN DCT RATAS DCT NEA N864 NONTU |
| Aircraft | A20N/M-SDE2E3FGHIJ1RWXYZ/LB1G1 |
Departure
| Time | 2026-05-05 18:40 |
|---|---|
| Airport | Bristol Airport (EGGD) |
Arrival
| Time | N/A |
|---|---|
| Airport | Adolfo Suárez Madrid–Barajas Airport (LEMD) |
| Time | Latitude | Longitude | Altitude | Speed | Heading |
|---|---|---|---|---|---|
| 2026-05-05 18:19 | 51.38571 | -2.70704 | 600 ft | 0 kts | 267° |
| 2026-05-05 18:35 | 51.38571 | -2.70715 | 600 ft | 2 kts | 268° |
| 2026-05-05 18:35 | 51.38571 | -2.70736 | 599 ft | 4 kts | 268° |
| 2026-05-05 18:35 | 51.38563 | -2.70812 | 598 ft | 8 kts | 232° |
| 2026-05-05 18:36 | 51.38508 | -2.70830 | 600 ft | 7 kts | 176° |
| 2026-05-05 18:36 | 51.38471 | -2.70873 | 601 ft | 7 kts | 252° |
| 2026-05-05 18:36 | 51.38463 | -2.70979 | 601 ft | 12 kts | 266° |
| 2026-05-05 18:36 | 51.38457 | -2.71146 | 601 ft | 17 kts | 266° |
| 2026-05-05 18:37 | 51.38450 | -2.71347 | 601 ft | 18 kts | 265° |
| 2026-05-05 18:37 | 51.38442 | -2.71552 | 602 ft | 18 kts | 266° |
| 2026-05-05 18:37 | 51.38434 | -2.71757 | 603 ft | 18 kts | 266° |
| 2026-05-05 18:37 | 51.38432 | -2.71956 | 607 ft | 18 kts | 271° |
| 2026-05-05 18:38 | 51.38427 | -2.72170 | 608 ft | 20 kts | 266° |
| 2026-05-05 18:38 | 51.38418 | -2.72394 | 612 ft | 20 kts | 265° |
| 2026-05-05 18:38 | 51.38408 | -2.72639 | 614 ft | 23 kts | 266° |
| 2026-05-05 18:38 | 51.38397 | -2.72915 | 609 ft | 27 kts | 266° |
| 2026-05-05 18:39 | 51.38386 | -2.73199 | 600 ft | 25 kts | 262° |
| 2026-05-05 18:39 | 51.38291 | -2.73350 | 596 ft | 16 kts | 179° |
| 2026-05-05 18:39 | 51.38215 | -2.73289 | 600 ft | 11 kts | 95° |
| 2026-05-05 18:39 | 51.38225 | -2.72981 | 613 ft | 59 kts | 86° |
| 2026-05-05 18:40 | 51.38266 | -2.71938 | 607 ft | 125 kts | 85° |
| 2026-05-05 18:40 | 51.38321 | -2.70301 | 728 ft | 163 kts | 85° |
| 2026-05-05 18:40 | 51.38351 | -2.68478 | 1257 ft | 169 kts | 84° |
| 2026-05-05 18:40 | 51.38390 | -2.66618 | 1936 ft | 169 kts | 83° |
| 2026-05-05 18:41 | 51.38439 | -2.64752 | 2568 ft | 170 kts | 82° |
| 2026-05-05 18:41 | 51.38501 | -2.62829 | 2992 ft | 181 kts | 82° |
| 2026-05-05 18:41 | 51.38583 | -2.60696 | 3297 ft | 203 kts | 82° |
| 2026-05-05 18:41 | 51.38673 | -2.58335 | 3704 ft | 222 kts | 83° |
| 2026-05-05 18:42 | 51.38561 | -2.55811 | 4213 ft | 242 kts | 109° |
| 2026-05-05 18:42 | 51.37472 | -2.53668 | 4742 ft | 264 kts | 147° |
| 2026-05-05 18:42 | 51.35694 | -2.52883 | 5329 ft | 280 kts | 181° |
| 2026-05-05 18:42 | 51.33828 | -2.53762 | 6168 ft | 283 kts | 214° |
| 2026-05-05 18:43 | 51.32341 | -2.55746 | 7074 ft | 283 kts | 222° |
| 2026-05-05 18:43 | 51.31073 | -2.58122 | 7862 ft | 285 kts | 244° |
| 2026-05-05 18:43 | 51.30538 | -2.61105 | 8692 ft | 284 kts | 265° |
| 2026-05-05 18:43 | 51.30446 | -2.64216 | 9518 ft | 285 kts | 270° |
| 2026-05-05 18:44 | 51.30418 | -2.67399 | 10334 ft | 288 kts | 270° |
| 2026-05-05 18:44 | 51.30368 | -2.70612 | 10849 ft | 301 kts | 269° |
| 2026-05-05 18:44 | 51.30280 | -2.74033 | 11254 ft | 318 kts | 268° |
| 2026-05-05 18:44 | 51.30161 | -2.77607 | 11900 ft | 325 kts | 268° |
| 2026-05-05 18:45 | 51.30025 | -2.81217 | 12660 ft | 328 kts | 267° |
| 2026-05-05 18:45 | 51.29881 | -2.84859 | 13421 ft | 331 kts | 267° |
| 2026-05-05 18:45 | 51.29733 | -2.88508 | 14142 ft | 334 kts | 267° |
| 2026-05-05 18:45 | 51.29581 | -2.92185 | 14845 ft | 338 kts | 267° |